Emden — 3ERP5 — position and weather

sailwx.info

Track history (hours):
 
Tides and Currents Weather Stations Pressure Air Temp Water Temp Dewpoint Dewpoint Depression Visibility Wind Speed Wind Dir Waves Ship Positions

Emden

Last reported at 2014-Nov-29 04:33 UTC. Time now 2014-Nov-29 05:06 UTC.
Position N 53°20' E 007°11'.

Length 177 m; draft 7.9 m.

Type: Ship. MMSI: 355051000.

Date/timePositionNaut miles runAvg speedWind from/ knotsBaromVisibWave heightAir tempDewpointWater temp
2014-Nov-29 04:33N 53°20' E 007°11'0 0.0
2014-Nov-29 03:32N 53°20' E 007°11'0 0.0
2014-Nov-29 02:32N 53°20' E 007°11'0 0.0
2014-Nov-29 01:32N 53°20' E 007°11'0 0.0
2014-Nov-29 00:32N 53°20' E 007°11'0 0.0
2014-Nov-28 23:32N 53°20' E 007°11'0 0.0
2014-Nov-28 22:32N 53°20' E 007°11'0 0.0
2014-Nov-28 21:32N 53°20' E 007°11'0 0.0
2014-Nov-28 20:32N 53°20' E 007°11'0 0.0
2014-Nov-28 19:32N 53°20' E 007°11'0 0.0
2014-Nov-28 18:32N 53°20' E 007°11'0 0.0
2014-Nov-28 17:32N 53°20' E 007°11'0 0.0
2014-Nov-28 16:32N 53°20' E 007°11'0 0.0
2014-Nov-28 15:32N 53°20' E 007°11'0 0.0
2014-Nov-28 14:32N 53°20' E 007°11'0 0.0
2014-Nov-28 13:32N 53°20' E 007°11'0 0.0
2014-Nov-28 12:32N 53°20' E 007°11'0 0.0
2014-Nov-28 11:32N 53°20' E 007°11'0 0.0
2014-Nov-28 10:32N 53°20' E 007°11'0 0.0
2014-Nov-28 09:32N 53°20' E 007°11'0 0.0
2014-Nov-28 08:32N 53°20' E 007°11'0 0.0
2014-Nov-28 07:32N 53°20' E 007°11'0 0.0
2014-Nov-28 06:32N 53°20' E 007°11'0 0.0
2014-Nov-28 05:32N 53°20' E 007°11'0 0.0
2014-Nov-28 04:29N 53°20' E 007°11'0 0.0
2014-Nov-28 03:32N 53°20' E 007°11'0 0.0
2014-Nov-28 02:32N 53°20' E 007°11'0 0.0
2014-Nov-28 01:32N 53°20' E 007°11'0 0.0
2014-Nov-28 00:34N 53°20' E 007°11'6 6.3
2014-Nov-27 23:33N 53°20' E 007°00'1212.1
2014-Nov-27 22:33N 53°30' E 006°49'1414.5
2014-Nov-27 21:33N 53°37' E 006°28'9 8.9
2014-Nov-27 20:33N 53°40' E 006°14'1313.3
2014-Nov-27 19:33N 53°39' E 005°51'1313.3
2014-Nov-27 18:33N 53°35' E 005°30'1312.7
2014-Nov-27 17:33N 53°30' E 005°10'1312.7
2014-Nov-27 16:33N 53°26' E 004°50'1312.5
2014-Nov-27 15:33N 53°15' E 004°38'1312.8
2014-Nov-27 14:33N 53°05' E 004°25'1413.2
2014-Nov-27 13:32N 52°53' E 004°15'1313.0
2014-Nov-27 12:33N 52°43' E 004°03'1313.0
2014-Nov-27 11:33N 52°33' E 003°49'1313.0
2014-Nov-27 10:31N 52°24' E 003°32'1613.6
2014-Nov-27 09:23N 52°13' E 003°14'3414.7
2014-Nov-27 07:05N 51°47' E 002°39'1015.2
2014-Nov-27 06:26N 51°40' E 002°29'1415.7
2014-Nov-27 05:33N 51°29' E 002°14'1616.0
2014-Nov-27 04:33N 51°14' E 002°05'1616.4
2014-Nov-27 03:33N 51°05' E 001°44'1717.1
2014-Nov-27 02:33N 50°52' E 001°26'4715.0
2014-Nov-26 23:27N 50°24' E 000°28'  
2014-Nov-24 05:09N 38°27' W 009°30'711.9
2014-Nov-24 04:33N 38°23' W 009°23'1211.9
2014-Nov-24 03:33N 38°20' W 009°08'1111.2
2014-Nov-24 02:33N 38°28' W 008°58'5 5.0
2014-Nov-24 01:31N 38°31' W 008°52'0 0.0
2014-Nov-24 00:28N 38°31' W 008°52'0 0.0
2014-Nov-23 23:31N 38°31' W 008°52'0 0.0
2014-Nov-23 22:19N 38°31' W 008°52'0 0.0
2014-Nov-23 21:31N 38°31' W 008°52'0 0.0
2014-Nov-23 20:13N 38°31' W 008°52'0 0.0
2014-Nov-23 19:31N 38°31' W 008°52'0 0.0
2014-Nov-23 18:31N 38°31' W 008°52'0 0.0
2014-Nov-23 17:31N 38°31' W 008°52'0 0.0
2014-Nov-23 16:31N 38°31' W 008°52'0 0.0
2014-Nov-23 15:25N 38°31' W 008°52'0 0.0
2014-Nov-23 14:31N 38°31' W 008°52'5 5.0
2014-Nov-23 13:33N 38°28' W 008°57'1212.2
2014-Nov-23 12:33N 38°22' W 009°10'1414.2
2014-Nov-23 11:33N 38°24' W 009°28'  
2014-Nov-19 05:19N 51°52' W 005°55'911.4
2014-Nov-19 04:33N 52°01' W 005°54'  
Track history (hours):
 
Tides and Currents Weather Stations Pressure Air Temp Water Temp Dewpoint Dewpoint Depression Visibility Wind Speed Wind Dir Waves Ship Positions

Emden

Last reported at 2014-Nov-29 04:33 UTC. Time now 2014-Nov-29 05:06 UTC.
Position N 53°20' E 007°11'.

Length 177 m; draft 7.9 m.

Type: Ship. MMSI: 355051000.

Date/timePositionNaut miles runAvg speedWind from/ knotsBaromVisibWave heightAir tempDewpointWater temp
2014-Nov-29 04:33N 53°20' E 007°11'0 0.0
2014-Nov-29 03:32N 53°20' E 007°11'0 0.0
2014-Nov-29 02:32N 53°20' E 007°11'0 0.0
2014-Nov-29 01:32N 53°20' E 007°11'0 0.0
2014-Nov-29 00:32N 53°20' E 007°11'0 0.0
2014-Nov-28 23:32N 53°20' E 007°11'0 0.0
2014-Nov-28 22:32N 53°20' E 007°11'0 0.0
2014-Nov-28 21:32N 53°20' E 007°11'0 0.0
2014-Nov-28 20:32N 53°20' E 007°11'0 0.0
2014-Nov-28 19:32N 53°20' E 007°11'0 0.0
2014-Nov-28 18:32N 53°20' E 007°11'0 0.0
2014-Nov-28 17:32N 53°20' E 007°11'0 0.0
2014-Nov-28 16:32N 53°20' E 007°11'0 0.0
2014-Nov-28 15:32N 53°20' E 007°11'0 0.0
2014-Nov-28 14:32N 53°20' E 007°11'0 0.0
2014-Nov-28 13:32N 53°20' E 007°11'0 0.0
2014-Nov-28 12:32N 53°20' E 007°11'0 0.0
2014-Nov-28 11:32N 53°20' E 007°11'0 0.0
2014-Nov-28 10:32N 53°20' E 007°11'0 0.0
2014-Nov-28 09:32N 53°20' E 007°11'0 0.0
2014-Nov-28 08:32N 53°20' E 007°11'0 0.0
2014-Nov-28 07:32N 53°20' E 007°11'0 0.0
2014-Nov-28 06:32N 53°20' E 007°11'0 0.0
2014-Nov-28 05:32N 53°20' E 007°11'0 0.0
2014-Nov-28 04:29N 53°20' E 007°11'0 0.0
2014-Nov-28 03:32N 53°20' E 007°11'0 0.0
2014-Nov-28 02:32N 53°20' E 007°11'0 0.0
2014-Nov-28 01:32N 53°20' E 007°11'0 0.0
2014-Nov-28 00:34N 53°20' E 007°11'6 6.3
2014-Nov-27 23:33N 53°20' E 007°00'1212.1
2014-Nov-27 22:33N 53°30' E 006°49'1414.5
2014-Nov-27 21:33N 53°37' E 006°28'9 8.9
2014-Nov-27 20:33N 53°40' E 006°14'1313.3
2014-Nov-27 19:33N 53°39' E 005°51'1313.3
2014-Nov-27 18:33N 53°35' E 005°30'1312.7
2014-Nov-27 17:33N 53°30' E 005°10'1312.7
2014-Nov-27 16:33N 53°26' E 004°50'1312.5
2014-Nov-27 15:33N 53°15' E 004°38'1312.8
2014-Nov-27 14:33N 53°05' E 004°25'1413.2
2014-Nov-27 13:32N 52°53' E 004°15'1313.0
2014-Nov-27 12:33N 52°43' E 004°03'1313.0
2014-Nov-27 11:33N 52°33' E 003°49'1313.0
2014-Nov-27 10:31N 52°24' E 003°32'1613.6
2014-Nov-27 09:23N 52°13' E 003°14'3414.7
2014-Nov-27 07:05N 51°47' E 002°39'1015.2
2014-Nov-27 06:26N 51°40' E 002°29'1415.7
2014-Nov-27 05:33N 51°29' E 002°14'1616.0
2014-Nov-27 04:33N 51°14' E 002°05'1616.4
2014-Nov-27 03:33N 51°05' E 001°44'1717.1
2014-Nov-27 02:33N 50°52' E 001°26'4715.0
2014-Nov-26 23:27N 50°24' E 000°28'  
2014-Nov-24 05:09N 38°27' W 009°30'711.9
2014-Nov-24 04:33N 38°23' W 009°23'1211.9
2014-Nov-24 03:33N 38°20' W 009°08'1111.2
2014-Nov-24 02:33N 38°28' W 008°58'5 5.0
2014-Nov-24 01:31N 38°31' W 008°52'0 0.0
2014-Nov-24 00:28N 38°31' W 008°52'0 0.0
2014-Nov-23 23:31N 38°31' W 008°52'0 0.0
2014-Nov-23 22:19N 38°31' W 008°52'0 0.0
2014-Nov-23 21:31N 38°31' W 008°52'0 0.0
2014-Nov-23 20:13N 38°31' W 008°52'0 0.0
2014-Nov-23 19:31N 38°31' W 008°52'0 0.0
2014-Nov-23 18:31N 38°31' W 008°52'0 0.0
2014-Nov-23 17:31N 38°31' W 008°52'0 0.0
2014-Nov-23 16:31N 38°31' W 008°52'0 0.0
2014-Nov-23 15:25N 38°31' W 008°52'0 0.0
2014-Nov-23 14:31N 38°31' W 008°52'5 5.0
2014-Nov-23 13:33N 38°28' W 008°57'1212.2
2014-Nov-23 12:33N 38°22' W 009°10'1414.2
2014-Nov-23 11:33N 38°24' W 009°28'  
2014-Nov-19 05:19N 51°52' W 005°55'911.4
2014-Nov-19 04:33N 52°01' W 005°54'  

Dump ship's entire track history